Terminal Aerodrome Forecast
Issued by NWS

Current Version | Previous Version | Text Only | Print | Product List | Glossary On
Versions: 1 2 3 4 5 6 7 8 9 10 11 12
105
FTUS44 KEPZ 270540
TAFDMN
TAF
KDMN 270540Z 2706/2806 08006KT P6SM VCSH FEW020 BKN040 BKN120
      TEMPO 2710/2714 VRB03KT 5SM BR
     FM271400 09012KT P6SM FEW040 SCT060 BKN200
     FM280200 11008KT P6SM FEW070 BKN120=

USA.gov is the U.S. government's official web portal to all federal, state and local government web resources and services.